sensor_id;sensor_type;location;lat;lon;timestamp;temperature;humidity
46900;DHT22;32647;49.382;7.078;2022-08-04T00:01:28;19.60;99.90
46900;DHT22;32647;49.382;7.078;2022-08-04T00:04:27;19.60;99.90
46900;DHT22;32647;49.382;7.078;2022-08-04T00:07:37;19.60;1.00
46900;DHT22;32647;49.382;7.078;2022-08-04T00:10:26;19.70;1.00
46900;DHT22;32647;49.382;7.078;2022-08-04T00:13:13;19.60;1.00
46900;DHT22;32647;49.382;7.078;2022-08-04T00:16:05;19.50;1.00
46900;DHT22;32647;49.382;7.078;2022-08-04T00:19:03;19.70;99.90
46900;DHT22;32647;49.382;7.078;2022-08-04T00:21:54;19.70;99.90
46900;DHT22;32647;49.382;7.078;2022-08-04T00:24:41;19.70;1.00
46900;DHT22;32647;49.382;7.078;2022-08-04T00:27:31;19.50;99.90
46900;DHT22;32647;49.382;7.078;2022-08-04T00:30:17;19.40;99.90
46900;DHT22;32647;49.382;7.078;2022-08-04T00:33:03;19.20;99.90
46900;DHT22;32647;49.382;7.078;2022-08-04T00:35:50;19.10;99.90
46900;DHT22;32647;49.382;7.078;2022-08-04T00:38:39;19.10;99.90
46900;DHT22;32647;49.382;7.078;2022-08-04T00:41:40;19.00;1.00
46900;DHT22;32647;49.382;7.078;2022-08-04T00:54:48;19.10;99.90
46900;DHT22;32647;49.382;7.078;2022-08-04T01:01:05;19.20;99.90
46900;DHT22;32647;49.382;7.078;2022-08-04T01:04:14;19.10;99.90
46900;DHT22;32647;49.382;7.078;2022-08-04T01:16:05;18.80;1.00
46900;DHT22;32647;49.382;7.078;2022-08-04T01:30:17;18.70;1.00
46900;DHT22;32647;49.382;7.078;2022-08-04T01:33:08;18.80;1.00
46900;DHT22;32647;49.382;7.078;2022-08-04T01:35:56;18.70;1.00
46900;DHT22;32647;49.382;7.078;2022-08-04T01:38:46;18.60;99.90
46900;DHT22;32647;49.382;7.078;2022-08-04T01:41:32;18.60;99.90
46900;DHT22;32647;49.382;7.078;2022-08-04T01:44:20;18.70;20.30
46900;DHT22;32647;49.382;7.078;2022-08-04T01:47:08;18.70;99.90
46900;DHT22;32647;49.382;7.078;2022-08-04T01:50:01;18.70;1.00
46900;DHT22;32647;49.382;7.078;2022-08-04T01:52:52;18.60;25.50
46900;DHT22;32647;49.382;7.078;2022-08-04T01:55:38;18.60;1.00
46900;DHT22;32647;49.382;7.078;2022-08-04T01:58:28;18.60;99.90
46900;DHT22;32647;49.382;7.078;2022-08-04T02:01:14;18.50;1.00
46900;DHT22;32647;49.382;7.078;2022-08-04T02:04:00;18.40;37.60
46900;DHT22;32647;49.382;7.078;2022-08-04T02:10:05;18.50;99.90
46900;DHT22;32647;49.382;7.078;2022-08-04T02:16:06;18.50;99.90
46900;DHT22;32647;49.382;7.078;2022-08-04T02:19:03;18.40;99.90
46900;DHT22;32647;49.382;7.078;2022-08-04T02:22:16;18.40;99.90
46900;DHT22;32647;49.382;7.078;2022-08-04T02:25:07;18.30;99.90
46900;DHT22;32647;49.382;7.078;2022-08-04T02:31:21;18.30;1.00
46900;DHT22;32647;49.382;7.078;2022-08-04T02:34:27;18.20;99.90
46900;DHT22;32647;49.382;7.078;2022-08-04T02:37:16;18.10;99.90
46900;DHT22;32647;49.382;7.078;2022-08-04T02:40:05;18.10;99.90
46900;DHT22;32647;49.382;7.078;2022-08-04T02:42:52;18.20;1.00
46900;DHT22;32647;49.382;7.078;2022-08-04T02:45:42;18.00;1.00
46900;DHT22;32647;49.382;7.078;2022-08-04T02:48:31;17.90;99.90
46900;DHT22;32647;49.382;7.078;2022-08-04T02:51:23;18.00;99.90
46900;DHT22;32647;49.382;7.078;2022-08-04T02:54:09;17.90;99.90
46900;DHT22;32647;49.382;7.078;2022-08-04T02:56:56;17.70;99.90
46900;DHT22;32647;49.382;7.078;2022-08-04T03:19:05;17.70;99.90
46900;DHT22;32647;49.382;7.078;2022-08-04T03:31:59;17.50;1.00
46900;DHT22;32647;49.382;7.078;2022-08-04T03:35:02;17.50;99.90
46900;DHT22;32647;49.382;7.078;2022-08-04T03:38:11;17.40;1.00
46900;DHT22;32647;49.382;7.078;2022-08-04T03:41:31;17.20;99.90
46900;DHT22;32647;49.382;7.078;2022-08-04T03:53:39;17.40;99.90
46900;DHT22;32647;49.382;7.078;2022-08-04T03:56:57;17.40;99.90
46900;DHT22;32647;49.382;7.078;2022-08-04T04:22:08;17.20;99.90
46900;DHT22;32647;49.382;7.078;2022-08-04T04:25:03;17.20;99.90
46900;DHT22;32647;49.382;7.078;2022-08-04T04:39:49;17.10;99.90
46900;DHT22;32647;49.382;7.078;2022-08-04T04:42:56;17.20;99.90
46900;DHT22;32647;49.382;7.078;2022-08-04T04:46:15;17.40;1.00
46900;DHT22;32647;49.382;7.078;2022-08-04T04:49:44;17.30;99.90
46900;DHT22;32647;49.382;7.078;2022-08-04T04:52:51;17.30;99.90
46900;DHT22;32647;49.382;7.078;2022-08-04T04:55:46;17.40;99.90
46900;DHT22;32647;49.382;7.078;2022-08-04T04:58:35;17.40;99.90
46900;DHT22;32647;49.382;7.078;2022-08-04T05:05:14;17.50;99.90
46900;DHT22;32647;49.382;7.078;2022-08-04T05:11:45;17.60;99.90
46900;DHT22;32647;49.382;7.078;2022-08-04T05:14:40;17.60;1.00
46900;DHT22;32647;49.382;7.078;2022-08-04T05:17:42;17.60;99.90
46900;DHT22;32647;49.382;7.078;2022-08-04T05:20:45;17.80;99.90
46900;DHT22;32647;49.382;7.078;2022-08-04T05:23:36;17.90;99.90
46900;DHT22;32647;49.382;7.078;2022-08-04T05:26:29;18.10;99.90
46900;DHT22;32647;49.382;7.078;2022-08-04T05:29:27;18.20;99.90
46900;DHT22;32647;49.382;7.078;2022-08-04T05:32:15;18.30;99.90
46900;DHT22;32647;49.382;7.078;2022-08-04T05:35:09;18.40;1.00
46900;DHT22;32647;49.382;7.078;2022-08-04T05:37:57;18.50;1.00
46900;DHT22;32647;49.382;7.078;2022-08-04T05:40:45;18.70;99.90
46900;DHT22;32647;49.382;7.078;2022-08-04T05:43:31;18.70;99.90
46900;DHT22;32647;49.382;7.078;2022-08-04T05:46:18;18.80;1.00
46900;DHT22;32647;49.382;7.078;2022-08-04T05:49:05;19.00;60.40
46900;DHT22;32647;49.382;7.078;2022-08-04T05:51:56;19.10;99.90
46900;DHT22;32647;49.382;7.078;2022-08-04T05:54:43;19.20;99.90
46900;DHT22;32647;49.382;7.078;2022-08-04T05:57:30;19.40;1.00
46900;DHT22;32647;49.382;7.078;2022-08-04T06:00:17;19.50;99.90
46900;DHT22;32647;49.382;7.078;2022-08-04T06:03:04;19.70;94.40
46900;DHT22;32647;49.382;7.078;2022-08-04T06:05:51;19.80;1.00
46900;DHT22;32647;49.382;7.078;2022-08-04T06:51:55;22.30;1.00
46900;DHT22;32647;49.382;7.078;2022-08-04T06:58:54;22.60;1.00
46900;DHT22;32647;49.382;7.078;2022-08-04T07:02:27;22.90;99.90
46900;DHT22;32647;49.382;7.078;2022-08-04T07:09:14;23.50;99.90
46900;DHT22;32647;49.382;7.078;2022-08-04T07:12:01;23.80;99.90
46900;DHT22;32647;49.382;7.078;2022-08-04T07:19:09;24.30;99.90
46900;DHT22;32647;49.382;7.078;2022-08-04T07:22:20;24.60;99.90
46900;DHT22;32647;49.382;7.078;2022-08-04T07:25:30;24.80;99.90
46900;DHT22;32647;49.382;7.078;2022-08-04T07:28:29;24.90;99.90
46900;DHT22;32647;49.382;7.078;2022-08-04T07:31:35;24.90;99.90
46900;DHT22;32647;49.382;7.078;2022-08-04T07:34:31;25.10;99.90
46900;DHT22;32647;49.382;7.078;2022-08-04T07:37:39;25.10;99.90
46900;DHT22;32647;49.382;7.078;2022-08-04T07:40:26;25.30;99.90
46900;DHT22;32647;49.382;7.078;2022-08-04T07:43:35;25.30;99.90
46900;DHT22;32647;49.382;7.078;2022-08-04T07:50:17;25.90;99.90
46900;DHT22;32647;49.382;7.078;2022-08-04T07:53:07;26.10;99.90
46900;DHT22;32647;49.382;7.078;2022-08-04T07:56:01;26.20;99.90
46900;DHT22;32647;49.382;7.078;2022-08-04T08:02:56;26.60;99.90
46900;DHT22;32647;49.382;7.078;2022-08-04T08:05:57;26.70;99.90
46900;DHT22;32647;49.382;7.078;2022-08-04T08:11:25;27.20;99.90
46900;DHT22;32647;49.382;7.078;2022-08-04T08:18:02;27.50;99.90
46900;DHT22;32647;49.382;7.078;2022-08-04T08:20:51;27.70;99.90
46900;DHT22;32647;49.382;7.078;2022-08-04T08:27:15;28.10;99.90
46900;DHT22;32647;49.382;7.078;2022-08-04T08:30:14;28.30;99.90
46900;DHT22;32647;49.382;7.078;2022-08-04T08:33:12;28.50;99.90
46900;DHT22;32647;49.382;7.078;2022-08-04T08:45:50;29.10;99.90
46900;DHT22;32647;49.382;7.078;2022-08-04T08:52:16;29.00;99.90
46900;DHT22;32647;49.382;7.078;2022-08-04T09:09:16;30.50;99.90
46900;DHT22;32647;49.382;7.078;2022-08-04T09:12:32;30.50;99.90
46900;DHT22;32647;49.382;7.078;2022-08-04T09:31:16;32.90;99.90
46900;DHT22;32647;49.382;7.078;2022-08-04T09:34:30;33.00;99.90
46900;DHT22;32647;49.382;7.078;2022-08-04T09:40:32;33.10;99.90
46900;DHT22;32647;49.382;7.078;2022-08-04T09:46:32;33.50;99.90
46900;DHT22;32647;49.382;7.078;2022-08-04T09:53:19;33.90;99.90
46900;DHT22;32647;49.382;7.078;2022-08-04T10:02:46;34.10;99.90
46900;DHT22;32647;49.382;7.078;2022-08-04T10:27:49;35.10;99.90
46900;DHT22;32647;49.382;7.078;2022-08-04T10:30:38;34.80;99.90
46900;DHT22;32647;49.382;7.078;2022-08-04T10:33:32;35.00;99.90
46900;DHT22;32647;49.382;7.078;2022-08-04T10:36:24;35.10;99.90
46900;DHT22;32647;49.382;7.078;2022-08-04T10:39:19;35.50;99.90
46900;DHT22;32647;49.382;7.078;2022-08-04T10:42:31;35.10;99.90
46900;DHT22;32647;49.382;7.078;2022-08-04T10:45:45;35.40;99.90
46900;DHT22;32647;49.382;7.078;2022-08-04T10:51:34;35.20;99.90
46900;DHT22;32647;49.382;7.078;2022-08-04T10:54:28;35.90;99.90
46900;DHT22;32647;49.382;7.078;2022-08-04T10:57:29;36.10;99.90
46900;DHT22;32647;49.382;7.078;2022-08-04T11:00:28;36.10;99.90
46900;DHT22;32647;49.382;7.078;2022-08-04T11:03:23;36.10;99.90
46900;DHT22;32647;49.382;7.078;2022-08-04T11:06:11;35.90;99.90
46900;DHT22;32647;49.382;7.078;2022-08-04T11:09:00;36.00;99.90
46900;DHT22;32647;49.382;7.078;2022-08-04T11:11:55;36.40;99.90
46900;DHT22;32647;49.382;7.078;2022-08-04T11:15:03;36.60;99.90
46900;DHT22;32647;49.382;7.078;2022-08-04T11:18:04;36.60;99.90
46900;DHT22;32647;49.382;7.078;2022-08-04T11:24:02;36.70;99.90
46900;DHT22;32647;49.382;7.078;2022-08-04T11:26:58;37.00;99.90
46900;DHT22;32647;49.382;7.078;2022-08-04T11:30:03;36.70;99.90
46900;DHT22;32647;49.382;7.078;2022-08-04T11:37:26;37.60;99.90
46900;DHT22;32647;49.382;7.078;2022-08-04T11:39:51;38.30;99.90
46900;DHT22;32647;49.382;7.078;2022-08-04T11:42:41;37.90;99.90
46900;DHT22;32647;49.382;7.078;2022-08-04T11:45:38;37.40;99.90
46900;DHT22;32647;49.382;7.078;2022-08-04T11:48:34;37.80;99.90
46900;DHT22;32647;49.382;7.078;2022-08-04T11:51:33;38.10;99.90
46900;DHT22;32647;49.382;7.078;2022-08-04T11:54:21;38.20;99.90
46900;DHT22;32647;49.382;7.078;2022-08-04T11:57:07;38.40;99.90
46900;DHT22;32647;49.382;7.078;2022-08-04T11:59:58;38.60;99.90
46900;DHT22;32647;49.382;7.078;2022-08-04T12:03:00;38.70;99.90
46900;DHT22;32647;49.382;7.078;2022-08-04T12:06:16;38.20;99.90
46900;DHT22;32647;49.382;7.078;2022-08-04T12:09:16;38.30;99.90
46900;DHT22;32647;49.382;7.078;2022-08-04T12:18:13;37.10;99.90
46900;DHT22;32647;49.382;7.078;2022-08-04T12:21:06;37.00;99.90
46900;DHT22;32647;49.382;7.078;2022-08-04T12:24:01;36.90;99.90
46900;DHT22;32647;49.382;7.078;2022-08-04T12:26:54;37.40;99.90
46900;DHT22;32647;49.382;7.078;2022-08-04T12:29:41;37.90;99.90
46900;DHT22;32647;49.382;7.078;2022-08-04T12:32:38;38.00;99.90
46900;DHT22;32647;49.382;7.078;2022-08-04T12:35:34;38.40;99.90
46900;DHT22;32647;49.382;7.078;2022-08-04T12:38:25;38.50;99.90
46900;DHT22;32647;49.382;7.078;2022-08-04T12:41:15;38.10;99.90
46900;DHT22;32647;49.382;7.078;2022-08-04T12:44:11;38.20;99.90
46900;DHT22;32647;49.382;7.078;2022-08-04T12:46:58;37.20;99.90
46900;DHT22;32647;49.382;7.078;2022-08-04T12:50:06;37.50;99.90
46900;DHT22;32647;49.382;7.078;2022-08-04T12:52:56;37.20;99.90
46900;DHT22;32647;49.382;7.078;2022-08-04T12:55:47;37.60;99.90
46900;DHT22;32647;49.382;7.078;2022-08-04T12:58:43;37.80;99.90
46900;DHT22;32647;49.382;7.078;2022-08-04T13:01:30;38.20;99.90
46900;DHT22;32647;49.382;7.078;2022-08-04T13:04:20;38.70;99.90
46900;DHT22;32647;49.382;7.078;2022-08-04T13:07:11;39.60;99.90
46900;DHT22;32647;49.382;7.078;2022-08-04T13:10:00;39.00;99.90
46900;DHT22;32647;49.382;7.078;2022-08-04T13:12:55;38.90;99.90
46900;DHT22;32647;49.382;7.078;2022-08-04T13:15:42;38.20;99.90
46900;DHT22;32647;49.382;7.078;2022-08-04T13:18:34;37.90;99.90
46900;DHT22;32647;49.382;7.078;2022-08-04T13:21:23;37.40;99.90
46900;DHT22;32647;49.382;7.078;2022-08-04T13:24:13;37.10;99.90
46900;DHT22;32647;49.382;7.078;2022-08-04T13:27:06;37.10;99.90
46900;DHT22;32647;49.382;7.078;2022-08-04T13:29:57;37.80;99.90
46900;DHT22;32647;49.382;7.078;2022-08-04T13:32:44;37.60;99.90
46900;DHT22;32647;49.382;7.078;2022-08-04T13:35:32;37.50;99.90
46900;DHT22;32647;49.382;7.078;2022-08-04T13:38:19;36.30;99.90
46900;DHT22;32647;49.382;7.078;2022-08-04T13:41:06;35.80;99.90
46900;DHT22;32647;49.382;7.078;2022-08-04T13:43:56;35.80;99.90
46900;DHT22;32647;49.382;7.078;2022-08-04T13:46:50;35.50;99.90
46900;DHT22;32647;49.382;7.078;2022-08-04T13:49:38;35.60;99.90
46900;DHT22;32647;49.382;7.078;2022-08-04T13:52:25;35.80;99.90
46900;DHT22;32647;49.382;7.078;2022-08-04T13:55:31;36.10;99.90
46900;DHT22;32647;49.382;7.078;2022-08-04T13:58:23;36.10;99.90
46900;DHT22;32647;49.382;7.078;2022-08-04T14:01:15;36.30;99.90
46900;DHT22;32647;49.382;7.078;2022-08-04T14:07:05;36.70;99.90
46900;DHT22;32647;49.382;7.078;2022-08-04T14:09:54;37.40;99.90
46900;DHT22;32647;49.382;7.078;2022-08-04T14:12:45;37.80;99.90
46900;DHT22;32647;49.382;7.078;2022-08-04T14:15:42;37.10;99.90
46900;DHT22;32647;49.382;7.078;2022-08-04T14:18:30;36.30;99.90
46900;DHT22;32647;49.382;7.078;2022-08-04T14:21:19;36.90;99.90
46900;DHT22;32647;49.382;7.078;2022-08-04T14:24:05;36.50;99.90
46900;DHT22;32647;49.382;7.078;2022-08-04T14:26:52;35.70;99.90
46900;DHT22;32647;49.382;7.078;2022-08-04T14:29:43;35.10;99.90
46900;DHT22;32647;49.382;7.078;2022-08-04T14:32:29;35.30;99.90
46900;DHT22;32647;49.382;7.078;2022-08-04T14:35:15;35.40;99.90
46900;DHT22;32647;49.382;7.078;2022-08-04T14:38:04;35.10;99.90
46900;DHT22;32647;49.382;7.078;2022-08-04T14:40:58;35.10;99.90
46900;DHT22;32647;49.382;7.078;2022-08-04T14:43:45;35.50;99.90
46900;DHT22;32647;49.382;7.078;2022-08-04T14:46:31;35.60;99.90
46900;DHT22;32647;49.382;7.078;2022-08-04T14:49:18;35.90;99.90
46900;DHT22;32647;49.382;7.078;2022-08-04T14:52:04;35.50;99.90
46900;DHT22;32647;49.382;7.078;2022-08-04T14:54:50;35.40;99.90
46900;DHT22;32647;49.382;7.078;2022-08-04T14:57:36;35.40;99.90
46900;DHT22;32647;49.382;7.078;2022-08-04T15:00:28;35.40;99.90
46900;DHT22;32647;49.382;7.078;2022-08-04T15:03:14;35.50;99.90
46900;DHT22;32647;49.382;7.078;2022-08-04T15:06:02;35.80;99.90
46900;DHT22;32647;49.382;7.078;2022-08-04T15:08:53;36.50;99.90
46900;DHT22;32647;49.382;7.078;2022-08-04T15:11:39;36.10;99.90
46900;DHT22;32647;49.382;7.078;2022-08-04T15:14:26;36.10;99.90
46900;DHT22;32647;49.382;7.078;2022-08-04T15:17:12;35.90;99.90
46900;DHT22;32647;49.382;7.078;2022-08-04T15:19:58;35.40;99.90
46900;DHT22;32647;49.382;7.078;2022-08-04T15:22:44;35.30;99.90
46900;DHT22;32647;49.382;7.078;2022-08-04T15:25:39;35.80;99.90
46900;DHT22;32647;49.382;7.078;2022-08-04T15:28:27;36.20;99.90
46900;DHT22;32647;49.382;7.078;2022-08-04T15:31:15;36.50;99.90
46900;DHT22;32647;49.382;7.078;2022-08-04T15:34:02;36.10;99.90
46900;DHT22;32647;49.382;7.078;2022-08-04T15:36:52;35.80;99.90
46900;DHT22;32647;49.382;7.078;2022-08-04T15:39:50;35.80;99.90
46900;DHT22;32647;49.382;7.078;2022-08-04T15:42:58;36.10;99.90
46900;DHT22;32647;49.382;7.078;2022-08-04T15:45:55;36.20;99.90
46900;DHT22;32647;49.382;7.078;2022-08-04T15:48:50;36.30;99.90
46900;DHT22;32647;49.382;7.078;2022-08-04T15:51:37;36.30;99.90
46900;DHT22;32647;49.382;7.078;2022-08-04T15:54:23;36.20;99.90
46900;DHT22;32647;49.382;7.078;2022-08-04T15:57:09;36.80;99.90
46900;DHT22;32647;49.382;7.078;2022-08-04T16:00:05;37.20;99.90
46900;DHT22;32647;49.382;7.078;2022-08-04T16:02:53;37.40;99.90
46900;DHT22;32647;49.382;7.078;2022-08-04T16:05:40;37.70;99.90
46900;DHT22;32647;49.382;7.078;2022-08-04T16:08:26;37.80;99.90
46900;DHT22;32647;49.382;7.078;2022-08-04T16:14:09;38.30;99.90
46900;DHT22;32647;49.382;7.078;2022-08-04T16:16:55;37.80;99.90
46900;DHT22;32647;49.382;7.078;2022-08-04T16:20:07;37.60;99.90
46900;DHT22;32647;49.382;7.078;2022-08-04T16:22:56;37.40;99.90
46900;DHT22;32647;49.382;7.078;2022-08-04T16:25:46;37.30;99.90
46900;DHT22;32647;49.382;7.078;2022-08-04T16:28:40;36.80;99.90
46900;DHT22;32647;49.382;7.078;2022-08-04T16:31:26;36.60;99.90
46900;DHT22;32647;49.382;7.078;2022-08-04T16:34:18;37.10;99.90
46900;DHT22;32647;49.382;7.078;2022-08-04T16:37:09;36.90;99.90
46900;DHT22;32647;49.382;7.078;2022-08-04T16:40:35;37.10;99.90
46900;DHT22;32647;49.382;7.078;2022-08-04T16:43:26;37.40;99.90
46900;DHT22;32647;49.382;7.078;2022-08-04T16:46:39;37.60;99.90
46900;DHT22;32647;49.382;7.078;2022-08-04T16:49:30;37.50;99.90
46900;DHT22;32647;49.382;7.078;2022-08-04T16:52:16;37.60;99.90
46900;DHT22;32647;49.382;7.078;2022-08-04T16:55:02;37.60;99.90
46900;DHT22;32647;49.382;7.078;2022-08-04T16:57:50;37.40;99.90
46900;DHT22;32647;49.382;7.078;2022-08-04T17:00:37;36.90;99.90
46900;DHT22;32647;49.382;7.078;2022-08-04T17:03:23;36.50;99.90
46900;DHT22;32647;49.382;7.078;2022-08-04T17:06:12;36.60;99.90
46900;DHT22;32647;49.382;7.078;2022-08-04T17:09:04;36.20;99.90
46900;DHT22;32647;49.382;7.078;2022-08-04T17:11:52;35.80;99.90
46900;DHT22;32647;49.382;7.078;2022-08-04T17:14:38;35.80;99.90
46900;DHT22;32647;49.382;7.078;2022-08-04T17:17:24;35.80;99.90
46900;DHT22;32647;49.382;7.078;2022-08-04T17:20:10;36.00;99.90
46900;DHT22;32647;49.382;7.078;2022-08-04T17:23:26;36.10;99.90
46900;DHT22;32647;49.382;7.078;2022-08-04T17:26:15;35.90;99.90
46900;DHT22;32647;49.382;7.078;2022-08-04T17:29:01;35.70;99.90
46900;DHT22;32647;49.382;7.078;2022-08-04T17:31:48;35.40;99.90
46900;DHT22;32647;49.382;7.078;2022-08-04T17:34:35;35.10;99.90
46900;DHT22;32647;49.382;7.078;2022-08-04T17:37:22;35.00;99.90
46900;DHT22;32647;49.382;7.078;2022-08-04T17:40:15;35.00;99.90
46900;DHT22;32647;49.382;7.078;2022-08-04T17:43:05;35.00;99.90
46900;DHT22;32647;49.382;7.078;2022-08-04T17:46:14;35.20;99.90
46900;DHT22;32647;49.382;7.078;2022-08-04T17:51:58;35.10;99.90
46900;DHT22;32647;49.382;7.078;2022-08-04T17:54:46;35.20;99.90
46900;DHT22;32647;49.382;7.078;2022-08-04T17:57:42;35.20;99.90
46900;DHT22;32647;49.382;7.078;2022-08-04T18:00:34;35.40;99.90
46900;DHT22;32647;49.382;7.078;2022-08-04T18:03:24;35.40;99.90
46900;DHT22;32647;49.382;7.078;2022-08-04T18:06:11;35.10;99.90
46900;DHT22;32647;49.382;7.078;2022-08-04T18:08:57;35.00;99.90
46900;DHT22;32647;49.382;7.078;2022-08-04T18:11:51;34.70;99.90
46900;DHT22;32647;49.382;7.078;2022-08-04T18:14:43;34.50;99.90
46900;DHT22;32647;49.382;7.078;2022-08-04T18:17:38;34.10;99.90
46900;DHT22;32647;49.382;7.078;2022-08-04T18:20:25;34.00;99.90
46900;DHT22;32647;49.382;7.078;2022-08-04T18:23:13;33.80;99.90
46900;DHT22;32647;49.382;7.078;2022-08-04T18:25:59;33.30;99.90
46900;DHT22;32647;49.382;7.078;2022-08-04T18:28:45;32.90;99.90
46900;DHT22;32647;49.382;7.078;2022-08-04T18:31:31;32.90;99.90
46900;DHT22;32647;49.382;7.078;2022-08-04T18:34:18;33.10;99.90
46900;DHT22;32647;49.382;7.078;2022-08-04T18:37:04;33.00;99.90
46900;DHT22;32647;49.382;7.078;2022-08-04T18:39:50;32.90;99.90
46900;DHT22;32647;49.382;7.078;2022-08-04T18:42:36;32.90;99.90
46900;DHT22;32647;49.382;7.078;2022-08-04T18:45:22;32.80;99.90
46900;DHT22;32647;49.382;7.078;2022-08-04T18:48:08;32.70;99.90
46900;DHT22;32647;49.382;7.078;2022-08-04T18:50:55;32.50;99.90
46900;DHT22;32647;49.382;7.078;2022-08-04T18:53:41;32.10;99.90
46900;DHT22;32647;49.382;7.078;2022-08-04T18:56:29;31.70;99.90
46900;DHT22;32647;49.382;7.078;2022-08-04T18:59:15;31.50;99.90
46900;DHT22;32647;49.382;7.078;2022-08-04T19:02:01;31.40;99.90
46900;DHT22;32647;49.382;7.078;2022-08-04T19:04:47;31.20;99.90
46900;DHT22;32647;49.382;7.078;2022-08-04T19:07:33;30.90;99.90
46900;DHT22;32647;49.382;7.078;2022-08-04T19:10:19;30.60;99.90
46900;DHT22;32647;49.382;7.078;2022-08-04T19:13:05;30.60;99.90
46900;DHT22;32647;49.382;7.078;2022-08-04T19:15:52;30.40;99.90
46900;DHT22;32647;49.382;7.078;2022-08-04T19:18:38;30.30;99.90
46900;DHT22;32647;49.382;7.078;2022-08-04T19:21:24;30.20;99.90
46900;DHT22;32647;49.382;7.078;2022-08-04T19:24:10;29.70;99.90
46900;DHT22;32647;49.382;7.078;2022-08-04T19:27:00;29.50;99.90
46900;DHT22;32647;49.382;7.078;2022-08-04T19:29:47;29.50;99.90
46900;DHT22;32647;49.382;7.078;2022-08-04T19:32:33;29.40;99.90
46900;DHT22;32647;49.382;7.078;2022-08-04T19:35:19;29.10;99.90
46900;DHT22;32647;49.382;7.078;2022-08-04T19:38:05;29.10;99.90
46900;DHT22;32647;49.382;7.078;2022-08-04T19:40:51;29.00;99.90
46900;DHT22;32647;49.382;7.078;2022-08-04T19:43:37;29.00;99.90
46900;DHT22;32647;49.382;7.078;2022-08-04T19:46:24;29.00;99.90
46900;DHT22;32647;49.382;7.078;2022-08-04T19:49:12;28.90;99.90
46900;DHT22;32647;49.382;7.078;2022-08-04T19:51:58;28.70;99.90
46900;DHT22;32647;49.382;7.078;2022-08-04T19:54:44;28.60;99.90
46900;DHT22;32647;49.382;7.078;2022-08-04T19:57:30;28.50;99.90
46900;DHT22;32647;49.382;7.078;2022-08-04T20:00:17;28.40;99.90
46900;DHT22;32647;49.382;7.078;2022-08-04T20:03:08;28.30;99.90
46900;DHT22;32647;49.382;7.078;2022-08-04T20:05:54;28.10;99.90
46900;DHT22;32647;49.382;7.078;2022-08-04T20:08:40;28.10;99.90
46900;DHT22;32647;49.382;7.078;2022-08-04T20:11:26;28.00;99.90
46900;DHT22;32647;49.382;7.078;2022-08-04T20:14:12;27.90;99.90
46900;DHT22;32647;49.382;7.078;2022-08-04T20:17:02;27.60;99.90
46900;DHT22;32647;49.382;7.078;2022-08-04T20:19:49;27.50;99.90
46900;DHT22;32647;49.382;7.078;2022-08-04T20:22:35;27.30;99.90
46900;DHT22;32647;49.382;7.078;2022-08-04T20:25:21;27.20;99.90
46900;DHT22;32647;49.382;7.078;2022-08-04T20:28:07;27.10;99.90
46900;DHT22;32647;49.382;7.078;2022-08-04T20:30:54;27.00;99.90
46900;DHT22;32647;49.382;7.078;2022-08-04T20:33:40;26.80;99.90
46900;DHT22;32647;49.382;7.078;2022-08-04T20:36:26;26.70;99.90
46900;DHT22;32647;49.382;7.078;2022-08-04T20:39:12;26.80;99.90
46900;DHT22;32647;49.382;7.078;2022-08-04T20:41:58;26.80;99.90
46900;DHT22;32647;49.382;7.078;2022-08-04T20:44:44;26.70;99.90
46900;DHT22;32647;49.382;7.078;2022-08-04T20:47:30;26.80;99.90
46900;DHT22;32647;49.382;7.078;2022-08-04T20:50:17;26.60;99.90
46900;DHT22;32647;49.382;7.078;2022-08-04T20:53:05;26.50;99.90
46900;DHT22;32647;49.382;7.078;2022-08-04T20:55:51;26.50;99.90
46900;DHT22;32647;49.382;7.078;2022-08-04T20:58:37;26.40;99.90
46900;DHT22;32647;49.382;7.078;2022-08-04T21:01:23;26.30;99.90
46900;DHT22;32647;49.382;7.078;2022-08-04T21:04:09;26.20;99.90
46900;DHT22;32647;49.382;7.078;2022-08-04T21:07:13;26.20;99.90
46900;DHT22;32647;49.382;7.078;2022-08-04T21:09:59;26.00;99.90
46900;DHT22;32647;49.382;7.078;2022-08-04T21:12:45;25.70;99.90
46900;DHT22;32647;49.382;7.078;2022-08-04T21:15:31;25.80;99.90
46900;DHT22;32647;49.382;7.078;2022-08-04T21:18:17;25.70;99.90
46900;DHT22;32647;49.382;7.078;2022-08-04T21:21:03;25.50;99.90
46900;DHT22;32647;49.382;7.078;2022-08-04T21:23:49;25.40;99.90
46900;DHT22;32647;49.382;7.078;2022-08-04T21:26:35;25.50;99.90
46900;DHT22;32647;49.382;7.078;2022-08-04T21:29:21;25.40;99.90
46900;DHT22;32647;49.382;7.078;2022-08-04T21:32:07;25.30;99.90
46900;DHT22;32647;49.382;7.078;2022-08-04T21:34:54;25.20;99.90
46900;DHT22;32647;49.382;7.078;2022-08-04T21:37:43;25.20;99.90
46900;DHT22;32647;49.382;7.078;2022-08-04T21:40:30;25.20;99.90
46900;DHT22;32647;49.382;7.078;2022-08-04T21:43:17;25.10;99.90
46900;DHT22;32647;49.382;7.078;2022-08-04T21:46:03;25.10;99.90
46900;DHT22;32647;49.382;7.078;2022-08-04T21:48:49;25.10;99.90
46900;DHT22;32647;49.382;7.078;2022-08-04T21:51:36;24.90;99.90
46900;DHT22;32647;49.382;7.078;2022-08-04T21:54:23;24.80;99.90
46900;DHT22;32647;49.382;7.078;2022-08-04T21:57:09;24.90;99.90
46900;DHT22;32647;49.382;7.078;2022-08-04T21:59:55;24.80;99.90
46900;DHT22;32647;49.382;7.078;2022-08-04T22:02:41;24.80;99.90
46900;DHT22;32647;49.382;7.078;2022-08-04T22:05:27;24.90;99.90
46900;DHT22;32647;49.382;7.078;2022-08-04T22:08:13;25.20;99.90
46900;DHT22;32647;49.382;7.078;2022-08-04T22:10:59;25.40;99.90
46900;DHT22;32647;49.382;7.078;2022-08-04T22:13:45;25.50;99.90
46900;DHT22;32647;49.382;7.078;2022-08-04T22:16:31;25.60;99.90
46900;DHT22;32647;49.382;7.078;2022-08-04T22:19:17;25.60;99.90
46900;DHT22;32647;49.382;7.078;2022-08-04T22:22:03;25.80;99.90
46900;DHT22;32647;49.382;7.078;2022-08-04T22:24:49;26.00;99.90
46900;DHT22;32647;49.382;7.078;2022-08-04T22:27:36;26.20;99.90
46900;DHT22;32647;49.382;7.078;2022-08-04T22:30:40;26.30;99.90
46900;DHT22;32647;49.382;7.078;2022-08-04T22:33:26;26.20;99.90
46900;DHT22;32647;49.382;7.078;2022-08-04T22:36:14;26.30;99.90
46900;DHT22;32647;49.382;7.078;2022-08-04T22:39:00;26.20;99.90
46900;DHT22;32647;49.382;7.078;2022-08-04T22:41:47;26.20;99.90
46900;DHT22;32647;49.382;7.078;2022-08-04T22:44:33;26.20;99.90
46900;DHT22;32647;49.382;7.078;2022-08-04T22:47:19;26.10;99.90
46900;DHT22;32647;49.382;7.078;2022-08-04T22:50:05;26.00;99.90
46900;DHT22;32647;49.382;7.078;2022-08-04T22:52:51;25.90;99.90
46900;DHT22;32647;49.382;7.078;2022-08-04T22:55:37;25.80;99.90
46900;DHT22;32647;49.382;7.078;2022-08-04T22:58:23;25.50;99.90
46900;DHT22;32647;49.382;7.078;2022-08-04T23:01:09;25.40;99.90
46900;DHT22;32647;49.382;7.078;2022-08-04T23:03:55;25.30;99.90
46900;DHT22;32647;49.382;7.078;2022-08-04T23:06:41;25.30;99.90
46900;DHT22;32647;49.382;7.078;2022-08-04T23:09:27;25.30;99.90